Time;durP1;ratioP1;P1;durP2;ratioP2;P2;SDS_P1;SDS_P2;PMS_P1;PMS_P2;Temp;Humidity;BMP_temperature;BMP_pressure;BME280_temperature;BME280_humidity;BME280_pressure;Samples;Min_cycle;Max_cycle;Signal;HPM_P1;HPM_P2
2022/10/27 00:01:43;;;;;;;2.17;1.13;;;;;;;;;;5006691;28;20057;-74
2022/10/27 00:04:14;;;;;;;1.83;1.27;;;;;;;;;;5006538;28;20054;-74
2022/10/27 00:06:43;;;;;;;3.85;1.33;;;;;;;;;;5006266;28;20046;-75
2022/10/27 00:09:13;;;;;;;3.28;1.60;;;;;;;;;;5006431;28;20533;-75
2022/10/27 00:11:43;;;;;;;4.82;1.90;;;;;;;;;;5006587;28;20057;-75
2022/10/27 00:14:13;;;;;;;2.35;1.60;;;;;;;;;;4989483;28;20058;-74
2022/10/27 00:16:43;;;;;;;3.95;1.77;;;;;;;;;;5006156;28;20042;-73
2022/10/27 00:19:12;;;;;;;5.53;2.10;;;;;;;;;;5005943;28;20046;-74
2022/10/27 00:21:45;;;;;;;2.70;1.70;;;;;;;;;;5007568;28;20056;-74
2022/10/27 00:24:15;;;;;;;3.83;1.88;;;;;;;;;;5011974;28;20432;-74
2022/10/27 00:26:45;;;;;;;4.65;2.88;;;;;;;;;;5012276;28;20544;-74
2022/10/27 00:29:15;;;;;;;7.28;3.40;;;;;;;;;;4994887;28;20084;-75
2022/10/27 00:31:44;;;;;;;6.72;4.35;;;;;;;;;;5012923;28;20049;-74
2022/10/27 00:34:14;;;;;;;13.68;5.28;;;;;;;;;;5012383;28;20045;-73
2022/10/27 00:36:44;;;;;;;9.82;4.03;;;;;;;;;;5012651;28;20053;-73
2022/10/27 00:39:14;;;;;;;7.13;4.72;;;;;;;;;;5011988;28;20038;-74
2022/10/27 00:41:45;;;;;;;14.00;4.43;;;;;;;;;;5012691;28;20080;-75
2022/10/27 00:44:29;;;;;;;6.97;4.18;;;;;;;;;;5013521;28;20054;-74
2022/10/27 00:47:10;;;;;;;3.72;2.67;;;;;;;;;;5012036;28;20045;-77
2022/10/27 00:49:46;;;;;;;4.03;3.00;;;;;;;;;;5011066;28;20061;-74
2022/10/27 00:52:31;;;;;;;4.05;2.95;;;;;;;;;;5011235;28;20057;-75
2022/10/27 00:55:32;;;;;;;3.38;2.40;;;;;;;;;;5011644;28;20049;-74
2022/10/27 00:58:06;;;;;;;4.13;2.33;;;;;;;;;;5011558;28;20033;-73
2022/10/27 01:00:39;;;;;;;2.80;1.60;;;;;;;;;;5012603;28;20057;-73
2022/10/27 01:03:13;;;;;;;2.88;1.75;;;;;;;;;;5013167;28;20061;-75
2022/10/27 01:05:45;;;;;;;3.45;2.40;;;;;;;;;;5012762;28;20042;-75
2022/10/27 01:08:16;;;;;;;7.88;2.25;;;;;;;;;;5012038;28;20637;-74
2022/10/27 01:10:47;;;;;;;3.03;2.17;;;;;;;;;;5013024;28;20054;-75
2022/10/27 01:13:17;;;;;;;3.38;1.75;;;;;;;;;;5012037;28;20133;-73
2022/10/27 01:16:03;;;;;;;4.55;2.33;;;;;;;;;;5012349;28;20057;-75
2022/10/27 01:19:09;;;;;;;3.25;2.08;;;;;;;;;;5012608;28;20409;-74
2022/10/27 01:21:52;;;;;;;4.93;2.50;;;;;;;;;;5012171;28;20050;-74
2022/10/27 01:24:43;;;;;;;2.75;1.88;;;;;;;;;;5012675;28;20048;-75
2022/10/27 01:27:53;;;;;;;3.53;1.85;;;;;;;;;;5012508;28;20042;-74
2022/10/27 01:30:24;;;;;;;4.45;1.98;;;;;;;;;;5012632;28;20044;-74
2022/10/27 01:33:01;;;;;;;2.28;1.65;;;;;;;;;;5012436;28;20045;-75
2022/10/27 01:36:02;;;;;;;2.63;1.80;;;;;;;;;;5007794;28;20054;-74
2022/10/27 01:38:47;;;;;;;3.38;1.60;;;;;;;;;;5009341;28;20505;-75
2022/10/27 01:41:40;;;;;;;2.70;1.58;;;;;;;;;;5009761;28;20038;-74
2022/10/27 01:44:22;;;;;;;1.73;1.30;;;;;;;;;;5009519;28;20048;-75
2022/10/27 01:46:53;;;;;;;20.58;1.85;;;;;;;;;;5009191;28;20052;-75
2022/10/27 01:49:23;;;;;;;17.50;1.95;;;;;;;;;;5009151;28;20041;-75
2022/10/27 01:52:08;;;;;;;2.58;1.38;;;;;;;;;;5008822;28;20050;-74
2022/10/27 01:54:38;;;;;;;3.72;1.02;;;;;;;;;;5008787;28;20405;-73
2022/10/27 01:57:22;;;;;;;1.35;1.25;;;;;;;;;;5009693;28;20046;-74
2022/10/27 02:00:07;;;;;;;1.33;0.95;;;;;;;;;;5008484;28;20064;-75
2022/10/27 02:02:47;;;;;;;2.05;1.08;;;;;;;;;;5009178;28;20057;-75
2022/10/27 02:05:27;;;;;;;4.68;2.03;;;;;;;;;;5007967;28;20056;-74
2022/10/27 02:08:29;;;;;;;1.13;0.82;;;;;;;;;;5008097;28;20061;-74
2022/10/27 02:11:05;;;;;;;3.15;0.95;;;;;;;;;;4986742;28;21127;-74
2022/10/27 02:13:39;;;;;;;2.03;1.25;;;;;;;;;;5008809;28;20053;-73
2022/10/27 02:16:26;;;;;;;12.75;1.10;;;;;;;;;;5009130;28;20042;-74
2022/10/27 02:19:09;;;;;;;5.18;1.17;;;;;;;;;;5008460;28;20050;-73
2022/10/27 02:21:41;;;;;;;2.20;0.90;;;;;;;;;;5009029;28;20046;-74
2022/10/27 02:24:11;;;;;;;1.05;0.80;;;;;;;;;;5008667;28;20053;-75
2022/10/27 02:26:53;;;;;;;1.30;1.05;;;;;;;;;;5008423;28;20046;-74
2022/10/27 02:29:34;;;;;;;3.60;1.08;;;;;;;;;;5008422;28;20052;-74
2022/10/27 02:32:08;;;;;;;3.00;0.93;;;;;;;;;;5008262;28;20405;-73
2022/10/27 02:34:39;;;;;;;1.50;1.00;;;;;;;;;;4990251;28;20057;-73
2022/10/27 02:37:09;;;;;;;1.08;0.90;;;;;;;;;;5008063;28;20050;-73
2022/10/27 02:39:39;;;;;;;3.22;0.93;;;;;;;;;;5007696;28;20556;-73
2022/10/27 02:42:09;;;;;;;1.50;1.10;;;;;;;;;;5008485;28;20058;-74
2022/10/27 02:44:39;;;;;;;1.65;0.93;;;;;;;;;;5008802;28;20609;-73
2022/10/27 02:47:09;;;;;;;1.00;0.88;;;;;;;;;;5008095;28;20042;-73
2022/10/27 02:49:39;;;;;;;2.38;1.00;;;;;;;;;;5008005;28;20049;-73
2022/10/27 02:52:09;;;;;;;1.23;0.90;;;;;;;;;;5007938;28;20045;-73
2022/10/27 02:54:39;;;;;;;1.38;0.90;;;;;;;;;;5007987;28;20045;-73
2022/10/27 02:57:09;;;;;;;1.45;1.00;;;;;;;;;;5007933;28;20041;-73
2022/10/27 02:59:38;;;;;;;1.30;1.08;;;;;;;;;;5006835;28;20050;-73
2022/10/27 03:02:08;;;;;;;1.70;0.90;;;;;;;;;;5007723;28;20037;-73
2022/10/27 03:04:38;;;;;;;0.68;0.60;;;;;;;;;;5007298;28;20050;-73
2022/10/27 03:07:08;;;;;;;2.40;1.02;;;;;;;;;;5007942;28;20061;-72
2022/10/27 03:09:38;;;;;;;0.75;0.70;;;;;;;;;;5007822;28;20057;-73
2022/10/27 03:12:07;;;;;;;0.80;0.80;;;;;;;;;;5007517;28;20060;-72
2022/10/27 03:14:37;;;;;;;0.50;0.50;;;;;;;;;;5007255;28;20050;-73
2022/10/27 03:17:07;;;;;;;3.45;0.80;;;;;;;;;;5007610;28;20049;-74
2022/10/27 03:19:36;;;;;;;1.50;0.73;;;;;;;;;;5007374;28;20429;-74
2022/10/27 03:22:06;;;;;;;4.53;0.98;;;;;;;;;;5006998;28;20085;-73
2022/10/27 03:24:36;;;;;;;1.75;0.80;;;;;;;;;;5007164;28;20532;-74
2022/10/27 03:27:06;;;;;;;1.42;1.10;;;;;;;;;;5007184;28;20500;-73
2022/10/27 03:29:36;;;;;;;1.73;0.90;;;;;;;;;;5006571;28;20073;-74
2022/10/27 03:32:05;;;;;;;0.90;0.65;;;;;;;;;;4989525;28;20073;-74
2022/10/27 03:34:35;;;;;;;0.90;0.70;;;;;;;;;;5007827;28;20057;-74
2022/10/27 03:37:05;;;;;;;2.00;0.80;;;;;;;;;;5006823;28;20544;-74
2022/10/27 03:39:36;;;;;;;1.67;0.95;;;;;;;;;;5006624;28;20054;-74
2022/10/27 03:42:06;;;;;;;0.82;0.80;;;;;;;;;;5006335;28;20509;-73
2022/10/27 03:44:36;;;;;;;2.65;1.10;;;;;;;;;;5006914;28;20064;-74
2022/10/27 03:47:05;;;;;;;0.82;0.80;;;;;;;;;;5006897;28;20680;-74
2022/10/27 03:49:35;;;;;;;0.93;0.82;;;;;;;;;;5006673;28;20057;-74
2022/10/27 03:52:05;;;;;;;1.10;1.00;;;;;;;;;;5006902;28;20041;-74
2022/10/27 03:54:35;;;;;;;1.30;1.20;;;;;;;;;;5006860;28;20629;-74
2022/10/27 03:57:05;;;;;;;1.45;0.60;;;;;;;;;;5006063;28;20042;-74
2022/10/27 03:59:35;;;;;;;0.70;0.63;;;;;;;;;;5006677;28;20041;-74
2022/10/27 04:02:05;;;;;;;1.83;0.70;;;;;;;;;;4989394;28;20501;-74
2022/10/27 04:04:35;;;;;;;0.85;0.73;;;;;;;;;;5007174;28;20474;-73
2022/10/27 04:07:04;;;;;;;0.75;0.70;;;;;;;;;;5006252;28;20126;-74
2022/10/27 04:09:34;;;;;;;1.73;0.70;;;;;;;;;;5006719;28;20402;-73
2022/10/27 04:12:04;;;;;;;0.70;0.70;;;;;;;;;;5006937;28;20520;-75
2022/10/27 04:14:34;;;;;;;1.30;0.93;;;;;;;;;;5006038;28;20037;-74
2022/10/27 04:17:04;;;;;;;0.85;0.63;;;;;;;;;;5006862;28;20041;-74
2022/10/27 04:19:34;;;;;;;1.58;0.77;;;;;;;;;;5006484;28;20053;-74
2022/10/27 04:22:03;;;;;;;1.15;0.60;;;;;;;;;;5006655;28;20425;-73
2022/10/27 04:24:33;;;;;;;2.03;1.08;;;;;;;;;;5006840;28;20061;-74
2022/10/27 04:27:03;;;;;;;1.05;0.90;;;;;;;;;;5006237;28;20041;-73
2022/10/27 04:29:33;;;;;;;1.05;0.90;;;;;;;;;;5006257;28;20058;-74
2022/10/27 04:32:03;;;;;;;0.70;0.70;;;;;;;;;;5006708;28;20509;-73
2022/10/27 04:34:32;;;;;;;1.25;0.90;;;;;;;;;;5006502;28;20046;-74
2022/10/27 04:37:02;;;;;;;4.53;1.15;;;;;;;;;;4989048;28;20049;-74
2022/10/27 04:39:32;;;;;;;1.17;0.70;;;;;;;;;;5006377;28;20402;-74
2022/10/27 04:42:01;;;;;;;2.53;0.70;;;;;;;;;;5006128;28;20100;-74
2022/10/27 04:44:31;;;;;;;1.50;1.00;;;;;;;;;;5006056;28;20068;-74
2022/10/27 04:47:01;;;;;;;1.10;0.80;;;;;;;;;;5006618;28;20042;-74
2022/10/27 04:49:31;;;;;;;0.90;0.80;;;;;;;;;;5006597;28;20050;-74
2022/10/27 04:52:01;;;;;;;1.55;0.80;;;;;;;;;;5005932;28;20054;-74
2022/10/27 04:54:31;;;;;;;0.63;0.63;;;;;;;;;;5006285;28;20054;-74
2022/10/27 04:57:00;;;;;;;0.68;0.68;;;;;;;;;;5005997;28;20046;-74
2022/10/27 04:59:30;;;;;;;1.25;0.90;;;;;;;;;;5006109;28;20053;-73
2022/10/27 05:02:00;;;;;;;0.70;0.70;;;;;;;;;;5006436;28;20520;-73
2022/10/27 05:04:30;;;;;;;0.52;0.50;;;;;;;;;;5006075;28;20398;-74
2022/10/27 05:07:00;;;;;;;0.88;0.63;;;;;;;;;;5006171;28;20065;-74
2022/10/27 05:09:30;;;;;;;1.65;0.88;;;;;;;;;;5008359;28;20065;-74
2022/10/27 05:12:00;;;;;;;1.48;1.00;;;;;;;;;;5010117;28;20046;-74
2022/10/27 05:14:29;;;;;;;6.15;0.85;;;;;;;;;;5010358;28;20050;-74
2022/10/27 05:16:59;;;;;;;1.75;0.90;;;;;;;;;;4992740;28;20054;-74
2022/10/27 05:19:30;;;;;;;0.75;0.57;;;;;;;;;;5010114;28;20042;-74
2022/10/27 05:22:00;;;;;;;1.33;1.00;;;;;;;;;;5009206;28;20054;-75
2022/10/27 05:24:30;;;;;;;1.17;1.02;;;;;;;;;;5009591;28;20049;-74
2022/10/27 05:26:59;;;;;;;1.13;0.98;;;;;;;;;;5009262;28;20057;-73
2022/10/27 05:29:30;;;;;;;1.40;0.70;;;;;;;;;;5009346;28;20050;-74
2022/10/27 05:32:00;;;;;;;1.25;0.95;;;;;;;;;;5009153;28;20072;-75
2022/10/27 05:34:30;;;;;;;1.52;1.00;;;;;;;;;;5009339;28;20046;-74
2022/10/27 05:36:59;;;;;;;0.70;0.60;;;;;;;;;;5009998;28;20394;-74
2022/10/27 05:39:31;;;;;;;0.95;0.57;;;;;;;;;;5009883;28;20041;-74
2022/10/27 05:42:00;;;;;;;1.67;0.82;;;;;;;;;;5009320;28;20062;-74
2022/10/27 05:44:30;;;;;;;3.42;0.70;;;;;;;;;;4991518;28;20045;-74
2022/10/27 05:47:00;;;;;;;0.47;0.47;;;;;;;;;;4991700;28;20061;-74
2022/10/27 05:49:30;;;;;;;0.70;0.60;;;;;;;;;;5008704;28;20397;-74
2022/10/27 05:52:00;;;;;;;1.60;0.80;;;;;;;;;;4991429;28;20053;-74
2022/10/27 05:54:29;;;;;;;1.92;1.13;;;;;;;;;;5008760;28;20042;-74
2022/10/27 05:56:59;;;;;;;0.65;0.52;;;;;;;;;;4991006;28;20433;-74
2022/10/27 05:59:29;;;;;;;1.35;0.80;;;;;;;;;;5008674;28;20064;-73
2022/10/27 06:01:58;;;;;;;1.60;0.80;;;;;;;;;;5009356;28;20413;-75
2022/10/27 06:04:28;;;;;;;1.77;1.02;;;;;;;;;;5009346;28;20041;-74
2022/10/27 06:06:58;;;;;;;1.75;1.00;;;;;;;;;;5008499;28;20069;-74
2022/10/27 06:09:28;;;;;;;1.52;0.90;;;;;;;;;;5008539;28;20060;-74
2022/10/27 06:11:57;;;;;;;0.90;0.80;;;;;;;;;;4990699;28;20505;-74
2022/10/27 06:14:27;;;;;;;1.35;0.70;;;;;;;;;;5008653;28;20056;-73
2022/10/27 06:16:58;;;;;;;1.92;1.00;;;;;;;;;;5008626;28;20042;-74
2022/10/27 06:19:28;;;;;;;1.60;1.00;;;;;;;;;;5008525;28;20432;-75
2022/10/27 06:21:58;;;;;;;2.17;0.80;;;;;;;;;;5009018;28;20046;-73
2022/10/27 06:24:28;;;;;;;1.42;1.05;;;;;;;;;;5008001;28;20056;-75
2022/10/27 06:26:58;;;;;;;1.20;0.93;;;;;;;;;;5007555;28;20050;-74
2022/10/27 06:29:28;;;;;;;3.25;0.88;;;;;;;;;;5008214;28;20500;-75
2022/10/27 06:31:57;;;;;;;3.30;1.10;;;;;;;;;;5008218;28;20061;-73
2022/10/27 06:34:27;;;;;;;1.70;1.02;;;;;;;;;;5007819;28;20061;-73
2022/10/27 06:36:57;;;;;;;2.42;0.90;;;;;;;;;;5008077;28;20057;-74
2022/10/27 06:39:28;;;;;;;1.55;0.95;;;;;;;;;;4990274;28;20058;-73
2022/10/27 06:41:58;;;;;;;2.05;0.80;;;;;;;;;;5008174;28;20401;-74
2022/10/27 06:44:28;;;;;;;1.40;0.95;;;;;;;;;;5007852;28;20489;-74
2022/10/27 06:46:58;;;;;;;2.70;0.95;;;;;;;;;;5005685;28;20053;-74
2022/10/27 06:49:27;;;;;;;0.90;0.68;;;;;;;;;;4991110;28;20428;-73
2022/10/27 06:51:59;;;;;;;2.45;1.23;;;;;;;;;;5008800;28;20045;-74
2022/10/27 06:54:29;;;;;;;1.73;1.00;;;;;;;;;;5008392;28;20552;-74
2022/10/27 06:56:58;;;;;;;1.40;0.98;;;;;;;;;;5007914;28;20056;-73
2022/10/27 06:59:28;;;;;;;2.50;1.30;;;;;;;;;;5008007;28;20045;-74
2022/10/27 07:01:58;;;;;;;3.10;1.10;;;;;;;;;;5007656;28;20708;-74
2022/10/27 07:04:28;;;;;;;1.95;0.98;;;;;;;;;;5007123;28;20559;-74
2022/10/27 07:06:58;;;;;;;4.00;1.20;;;;;;;;;;5007999;28;20042;-73
2022/10/27 07:09:27;;;;;;;2.88;0.90;;;;;;;;;;5007380;28;20406;-74
2022/10/27 07:11:57;;;;;;;2.05;1.00;;;;;;;;;;5007636;28;20085;-74
2022/10/27 07:14:27;;;;;;;0.90;0.73;;;;;;;;;;5007454;28;20046;-73
2022/10/27 07:16:58;;;;;;;2.67;1.10;;;;;;;;;;5007605;28;20045;-74
2022/10/27 07:19:29;;;;;;;1.88;1.05;;;;;;;;;;5008094;28;20489;-74
2022/10/27 07:21:58;;;;;;;1.67;0.80;;;;;;;;;;5006963;28;20050;-74
2022/10/27 07:24:28;;;;;;;2.40;0.90;;;;;;;;;;5006889;28;20064;-74
2022/10/27 07:26:58;;;;;;;1.00;0.80;;;;;;;;;;5007370;28;20049;-74
2022/10/27 07:29:28;;;;;;;1.67;1.20;;;;;;;;;;5007567;28;20049;-73
2022/10/27 07:31:58;;;;;;;2.75;0.88;;;;;;;;;;5005870;28;20050;-74
2022/10/27 07:34:28;;;;;;;3.95;0.93;;;;;;;;;;5006965;28;20049;-74
2022/10/27 07:36:58;;;;;;;3.33;1.00;;;;;;;;;;5007234;28;20052;-74
2022/10/27 07:39:27;;;;;;;2.00;1.10;;;;;;;;;;5006864;28;20501;-73
2022/10/27 07:41:57;;;;;;;5.22;1.42;;;;;;;;;;5007260;28;20061;-74
2022/10/27 07:44:27;;;;;;;1.90;0.88;;;;;;;;;;5006796;28;20049;-74
2022/10/27 07:46:57;;;;;;;0.93;0.82;;;;;;;;;;5007162;28;20060;-74
2022/10/27 07:49:26;;;;;;;1.05;0.90;;;;;;;;;;5007395;28;20046;-74
2022/10/27 07:51:56;;;;;;;1.00;0.90;;;;;;;;;;5006683;28;20056;-74
2022/10/27 07:54:26;;;;;;;1.95;1.00;;;;;;;;;;5006941;28;20527;-74
2022/10/27 07:56:55;;;;;;;1.10;0.73;;;;;;;;;;5007328;28;20061;-73
2022/10/27 07:59:25;;;;;;;2.97;0.98;;;;;;;;;;5006836;28;20050;-73
2022/10/27 08:01:55;;;;;;;0.88;0.77;;;;;;;;;;5007142;28;20432;-73
2022/10/27 08:04:25;;;;;;;2.05;1.25;;;;;;;;;;5006966;28;20591;-73
2022/10/27 08:06:54;;;;;;;1.30;1.00;;;;;;;;;;5007217;28;20117;-73
2022/10/27 08:09:25;;;;;;;1.60;1.10;;;;;;;;;;5006677;28;20058;-73
2022/10/27 08:11:55;;;;;;;1.88;0.70;;;;;;;;;;5006596;28;20054;-74
2022/10/27 08:14:27;;;;;;;2.33;1.00;;;;;;;;;;5005922;28;20058;-80
2022/10/27 08:16:57;;;;;;;2.30;0.93;;;;;;;;;;5006467;28;20046;-74
2022/10/27 08:19:32;;;;;;;;;;;;;;;;;;5007065;28;20093;-73
2022/10/27 08:22:01;;;;;;;1.17;1.08;;;;;;;;;;5006764;28;19921;-74
2022/10/27 08:24:31;;;;;;;1.73;0.65;;;;;;;;;;5006812;28;20049;-74
2022/10/27 08:27:01;;;;;;;2.53;1.15;;;;;;;;;;5006476;28;20041;-74
2022/10/27 08:29:31;;;;;;;2.45;1.38;;;;;;;;;;5007055;28;20654;-73
2022/10/27 08:32:00;;;;;;;2.00;1.40;;;;;;;;;;5006794;28;20053;-73
2022/10/27 08:34:30;;;;;;;1.58;1.23;;;;;;;;;;4988462;28;20054;-76
2022/10/27 08:37:00;;;;;;;3.35;1.17;;;;;;;;;;5006600;28;20064;-74
2022/10/27 08:39:29;;;;;;;1.15;1.05;;;;;;;;;;5005288;28;20069;-73
2022/10/27 08:42:06;;;;;;;1.88;1.10;;;;;;;;;;5006011;28;20049;-74
2022/10/27 08:44:43;;;;;;;5.15;1.65;;;;;;;;;;5009048;28;20544;-74
2022/10/27 08:47:20;;;;;;;3.08;1.42;;;;;;;;;;5010091;28;20046;-74
2022/10/27 08:50:12;;;;;;;2.83;1.17;;;;;;;;;;5010243;28;20505;-74
2022/10/27 08:52:48;;;;;;;1.98;1.77;;;;;;;;;;5010417;28;20038;-74
2022/10/27 08:55:27;;;;;;;5.28;1.65;;;;;;;;;;5010484;28;20053;-73
2022/10/27 08:58:15;;;;;;;2.80;1.45;;;;;;;;;;5010212;28;20397;-74
2022/10/27 09:01:04;;;;;;;4.72;1.70;;;;;;;;;;5009818;28;20053;-74
2022/10/27 09:03:39;;;;;;;2.28;1.23;;;;;;;;;;5010143;28;20049;-74
2022/10/27 09:06:18;;;;;;;4.72;1.20;;;;;;;;;;5009866;28;20069;-72
2022/10/27 09:08:57;;;;;;;2.00;1.35;;;;;;;;;;5009985;28;20391;-74
2022/10/27 09:11:55;;;;;;;1.65;1.23;;;;;;;;;;4992326;28;20532;-74
2022/10/27 09:14:47;;;;;;;1.40;1.20;;;;;;;;;;5009615;28;20057;-73
2022/10/27 09:17:33;;;;;;;3.50;1.38;;;;;;;;;;5009417;28;20045;-78
2022/10/27 09:20:05;;;;;;;3.83;1.52;;;;;;;;;;5010003;28;20497;-73
2022/10/27 09:22:47;;;;;;;3.20;1.10;;;;;;;;;;5010279;28;20391;-74
2022/10/27 09:25:20;;;;;;;1.52;1.20;;;;;;;;;;4992488;28;20533;-74
2022/10/27 09:27:56;;;;;;;3.15;1.50;;;;;;;;;;5009415;28;20519;-74
2022/10/27 09:30:34;;;;;;;1.85;1.30;;;;;;;;;;5009344;28;20045;-75
2022/10/27 09:33:15;;;;;;;3.00;1.27;;;;;;;;;;5009579;28;20520;-73
2022/10/27 09:35:48;;;;;;;3.10;1.80;;;;;;;;;;5009891;28;20060;-74
2022/10/27 09:38:22;;;;;;;2.65;1.40;;;;;;;;;;5009555;28;20061;-73
2022/10/27 09:40:53;;;;;;;5.10;1.63;;;;;;;;;;5009614;28;20041;-73
2022/10/27 09:43:23;;;;;;;2.47;1.55;;;;;;;;;;5009559;28;20046;-74
2022/10/27 09:46:02;;;;;;;2.95;1.60;;;;;;;;;;5009396;28;20054;-73
2022/10/27 09:48:35;;;;;;;6.05;2.42;;;;;;;;;;5009749;28;20046;-73
2022/10/27 09:51:22;;;;;;;6.63;2.72;;;;;;;;;;5009605;28;20519;-73
2022/10/27 09:53:53;;;;;;;9.93;4.05;;;;;;;;;;5009101;28;20049;-74
2022/10/27 09:56:37;;;;;;;8.63;3.22;;;;;;;;;;5007814;28;20390;-74
2022/10/27 09:59:17;;;;;;;8.00;3.30;;;;;;;;;;5009009;28;20544;-73
2022/10/27 10:01:56;;;;;;;5.43;2.90;;;;;;;;;;5008459;28;20386;-73
2022/10/27 10:04:30;;;;;;;5.97;2.53;;;;;;;;;;5008878;28;20046;-73
2022/10/27 10:07:03;;;;;;;7.68;3.13;;;;;;;;;;5008987;28;20042;-73
2022/10/27 10:09:38;;;;;;;5.38;3.33;;;;;;;;;;5008390;28;20046;-73
2022/10/27 10:12:16;;;;;;;11.77;3.00;;;;;;;;;;5008840;28;20057;-73
2022/10/27 10:15:11;;;;;;;5.10;3.08;;;;;;;;;;5008450;28;20074;-73
2022/10/27 10:18:02;;;;;;;7.82;2.90;;;;;;;;;;5008389;28;20049;-73
2022/10/27 10:20:41;;;;;;;4.40;2.67;;;;;;;;;;5008540;28;20050;-73
2022/10/27 10:23:26;;;;;;;4.63;2.42;;;;;;;;;;5008170;28;20057;-73
2022/10/27 10:25:58;;;;;;;9.32;2.78;;;;;;;;;;5008498;28;20057;-73
2022/10/27 10:28:43;;;;;;;5.93;2.03;;;;;;;;;;5007408;28;20041;-77
2022/10/27 10:31:21;;;;;;;3.80;2.25;;;;;;;;;;5008604;28;20528;-75
2022/10/27 10:33:54;;;;;;;6.07;2.13;;;;;;;;;;5007897;28;20045;-74
2022/10/27 10:36:28;;;;;;;5.70;2.38;;;;;;;;;;5008483;28;20045;-73
2022/10/27 10:38:59;;;;;;;5.28;2.10;;;;;;;;;;5008463;28;20074;-74
2022/10/27 10:41:30;;;;;;;4.70;2.28;;;;;;;;;;5008072;28;20056;-73
2022/10/27 10:44:15;;;;;;;4.72;1.77;;;;;;;;;;4990361;28;20064;-76
2022/10/27 10:46:53;;;;;;;3.70;2.13;;;;;;;;;;5007769;28;20049;-73
2022/10/27 10:49:30;;;;;;;4.97;1.90;;;;;;;;;;5008286;28;20052;-74
2022/10/27 10:52:21;;;;;;;3.83;1.60;;;;;;;;;;5010705;28;20849;-74
2022/10/27 10:54:52;;;;;;;6.43;2.05;;;;;;;;;;5008243;28;20049;-74
2022/10/27 10:57:44;;;;;;;6.20;2.33;;;;;;;;;;5007131;28;20052;-73
2022/10/27 11:00:17;;;;;;;2.45;1.10;;;;;;;;;;4990425;28;20539;-74
2022/10/27 11:02:58;;;;;;;5.82;1.25;;;;;;;;;;5007813;28;20053;-74
2022/10/27 11:05:33;;;;;;;2.10;1.27;;;;;;;;;;5007958;28;20053;-73
2022/10/27 11:08:05;;;;;;;4.75;1.50;;;;;;;;;;5007477;28;20108;-73
2022/10/27 11:10:40;;;;;;;3.95;1.20;;;;;;;;;;5007687;28;20053;-78
2022/10/27 11:13:17;;;;;;;3.33;1.75;;;;;;;;;;5007511;28;20045;-72
2022/10/27 11:16:02;;;;;;;4.60;2.13;;;;;;;;;;5006606;28;20042;-74
2022/10/27 11:18:52;;;;;;;3.20;1.45;;;;;;;;;;4990059;28;20053;-72
2022/10/27 11:21:45;;;;;;;2.78;1.17;;;;;;;;;;5007478;28;20038;-76
2022/10/27 11:24:28;;;;;;;3.58;1.40;;;;;;;;;;5000238;28;20069;-74
2022/10/27 11:26:58;;;;;;;2.70;1.33;;;;;;;;;;5008001;28;20673;-75
2022/10/27 11:29:53;;;;;;;6.75;2.97;;;;;;;;;;5007265;28;20049;-75
2022/10/27 11:33:07;;;;;;;3.28;1.80;;;;;;;;;;5007044;28;20048;-74
2022/10/27 11:35:49;;;;;;;2.45;1.17;;;;;;;;;;5006632;28;20045;-72
2022/10/27 11:38:47;;;;;;;2.03;1.42;;;;;;;;;;5007072;28;20042;-74
2022/10/27 11:41:37;;;;;;;3.38;1.52;;;;;;;;;;5006382;28;20529;-74
2022/10/27 11:44:25;;;;;;;2.97;1.77;;;;;;;;;;5006918;28;20053;-74
2022/10/27 11:47:10;;;;;;;2.45;1.40;;;;;;;;;;5007445;28;20600;-73
2022/10/27 11:50:15;;;;;;;2.53;1.60;;;;;;;;;;5006605;28;20042;-74
2022/10/27 11:52:48;;;;;;;4.22;1.25;;;;;;;;;;4954640;28;20069;-75
2022/10/27 11:55:22;;;;;;;2.95;1.00;;;;;;;;;;5007399;28;20045;-74
2022/10/27 11:58:17;;;;;;;2.38;1.00;;;;;;;;;;5006965;28;20521;-74
2022/10/27 12:01:13;;;;;;;4.85;1.77;;;;;;;;;;5006845;28;20054;-74
2022/10/27 12:03:50;;;;;;;3.00;1.17;;;;;;;;;;4979813;28;20061;-74
2022/10/27 12:06:41;;;;;;;2.63;1.52;;;;;;;;;;5006915;28;20046;-74
2022/10/27 12:09:33;;;;;;;2.90;1.10;;;;;;;;;;5006477;28;20532;-73
2022/10/27 12:12:35;;;;;;;3.05;1.30;;;;;;;;;;5006747;28;20038;-74
2022/10/27 12:15:12;;;;;;;3.60;1.75;;;;;;;;;;5007001;28;20052;-74
2022/10/27 12:17:53;;;;;;;3.10;1.20;;;;;;;;;;5006587;28;20038;-74
2022/10/27 12:20:40;;;;;;;3.15;1.00;;;;;;;;;;5006488;28;20052;-74
2022/10/27 12:23:34;;;;;;;1.95;0.82;;;;;;;;;;5006574;28;20050;-75
2022/10/27 12:26:17;;;;;;;1.88;0.82;;;;;;;;;;5006512;28;20060;-74
2022/10/27 12:28:48;;;;;;;3.20;0.75;;;;;;;;;;5006986;28;20408;-74
2022/10/27 12:31:25;;;;;;;1.88;0.80;;;;;;;;;;5006211;28;20505;-74
2022/10/27 12:34:03;;;;;;;2.30;0.93;;;;;;;;;;5006508;28;20054;-74
2022/10/27 12:36:45;;;;;;;0.98;0.80;;;;;;;;;;5006748;28;20042;-74
2022/10/27 12:39:36;;;;;;;0.75;0.70;;;;;;;;;;5006542;28;20077;-74
2022/10/27 12:42:15;;;;;;;2.38;0.73;;;;;;;;;;5006797;28;20057;-75
2022/10/27 12:45:19;;;;;;;2.28;1.08;;;;;;;;;;5006306;28;20061;-74
2022/10/27 12:48:18;;;;;;;4.07;2.28;;;;;;;;;;5006504;28;20041;-74
2022/10/27 12:51:03;;;;;;;1.35;0.80;;;;;;;;;;5001136;28;20068;-74
2022/10/27 12:53:54;;;;;;;3.92;1.13;;;;;;;;;;5005699;28;20042;-74
2022/10/27 12:56:36;;;;;;;1.48;1.13;;;;;;;;;;5007021;28;20046;-76
2022/10/27 12:59:43;;;;;;;3.22;1.13;;;;;;;;;;5006352;28;20046;-73
2022/10/27 13:02:13;;;;;;;2.03;0.80;;;;;;;;;;5006146;28;20053;-74
2022/10/27 13:05:02;;;;;;;0.93;0.80;;;;;;;;;;5006418;28;20042;-74
2022/10/27 13:07:56;;;;;;;2.13;0.88;;;;;;;;;;5006353;28;20397;-78
2022/10/27 13:10:39;;;;;;;0.38;0.38;;;;;;;;;;5006396;28;20041;-75
2022/10/27 13:13:25;;;;;;;2.67;1.15;;;;;;;;;;5005913;28;20042;-77
2022/10/27 13:15:55;;;;;;;2.75;0.60;;;;;;;;;;4989171;28;20054;-74
2022/10/27 13:18:32;;;;;;;0.90;0.70;;;;;;;;;;5006147;28;20386;-75
2022/10/27 13:21:14;;;;;;;3.72;0.73;;;;;;;;;;5006234;28;20427;-75
2022/10/27 13:23:50;;;;;;;0.50;0.50;;;;;;;;;;5005680;28;20152;-74
2022/10/27 13:26:28;;;;;;;3.05;0.60;;;;;;;;;;5006034;28;20049;-74
2022/10/27 13:29:23;;;;;;;0.50;0.40;;;;;;;;;;5005304;28;20045;-74
2022/10/27 13:32:27;;;;;;;0.93;0.63;;;;;;;;;;5009760;28;20045;-74
2022/10/27 13:35:00;;;;;;;0.80;0.63;;;;;;;;;;5009520;28;20042;-75
2022/10/27 13:37:46;;;;;;;0.82;0.75;;;;;;;;;;5009947;28;20057;-74
2022/10/27 13:40:19;;;;;;;0.65;0.60;;;;;;;;;;5009652;28;20054;-74
2022/10/27 13:42:54;;;;;;;1.00;0.60;;;;;;;;;;5009603;28;20049;-74
2022/10/27 13:45:27;;;;;;;1.52;0.80;;;;;;;;;;5009469;28;20556;-74
2022/10/27 13:48:09;;;;;;;0.73;0.70;;;;;;;;;;5009249;28;20160;-75
2022/10/27 13:50:48;;;;;;;0.95;0.68;;;;;;;;;;5009433;28;20409;-74
2022/10/27 13:53:18;;;;;;;3.53;0.60;;;;;;;;;;5008042;28;20505;-75
2022/10/27 13:55:55;;;;;;;0.55;0.55;;;;;;;;;;5009320;28;20053;-74
2022/10/27 13:58:34;;;;;;;0.50;0.50;;;;;;;;;;5009393;28;20497;-75
2022/10/27 14:01:30;;;;;;;1.00;0.70;;;;;;;;;;5009718;28;20505;-74
2022/10/27 14:04:22;;;;;;;2.67;0.95;;;;;;;;;;4991349;28;20068;-74
2022/10/27 14:07:03;;;;;;;2.40;0.80;;;;;;;;;;5008748;28;20049;-75
2022/10/27 14:09:35;;;;;;;2.13;0.98;;;;;;;;;;5009187;28;20536;-75
2022/10/27 14:12:14;;;;;;;1.90;1.10;;;;;;;;;;4991688;28;20061;-75
2022/10/27 14:15:01;;;;;;;1.00;0.70;;;;;;;;;;5008620;28;20054;-74
2022/10/27 14:17:32;;;;;;;2.10;0.80;;;;;;;;;;4991123;28;20045;-74
2022/10/27 14:20:07;;;;;;;0.77;0.63;;;;;;;;;;5009145;28;20521;-75
2022/10/27 14:22:44;;;;;;;1.40;1.00;;;;;;;;;;5008804;28;20046;-74
2022/10/27 14:25:30;;;;;;;0.63;0.63;;;;;;;;;;5008357;28;20038;-75
2022/10/27 14:28:21;;;;;;;2.05;0.80;;;;;;;;;;5008414;28;20042;-74
2022/10/27 14:31:20;;;;;;;1.00;0.70;;;;;;;;;;5008918;28;20054;-75
2022/10/27 14:33:51;;;;;;;0.70;0.68;;;;;;;;;;5008668;28;20046;-73
2022/10/27 14:36:32;;;;;;;1.35;0.82;;;;;;;;;;5008286;28;20057;-79
2022/10/27 14:39:27;;;;;;;1.25;0.85;;;;;;;;;;5008228;28;20679;-73
2022/10/27 14:42:04;;;;;;;1.83;0.90;;;;;;;;;;5006496;28;20053;-76
2022/10/27 14:44:35;;;;;;;2.00;1.00;;;;;;;;;;5008052;28;20046;-77
2022/10/27 14:47:12;;;;;;;0.50;0.50;;;;;;;;;;5008136;28;20424;-75
2022/10/27 14:49:49;;;;;;;3.17;1.08;;;;;;;;;;5007805;28;20049;-74
2022/10/27 14:52:40;;;;;;;2.58;1.58;;;;;;;;;;5007807;28;20060;-75
2022/10/27 14:55:37;;;;;;;0.68;0.68;;;;;;;;;;5007607;28;20041;-75
2022/10/27 14:58:21;;;;;;;1.58;0.93;;;;;;;;;;5007371;28;20038;-75
2022/10/27 15:00:51;;;;;;;1.80;0.90;;;;;;;;;;5008130;28;20068;-74
2022/10/27 15:03:21;;;;;;;1.63;1.00;;;;;;;;;;5008290;28;20840;-76
2022/10/27 15:05:51;;;;;;;2.58;0.90;;;;;;;;;;5008081;28;20413;-74
2022/10/27 15:08:29;;;;;;;3.42;1.02;;;;;;;;;;5006995;28;20062;-73
2022/10/27 15:11:04;;;;;;;1.63;0.60;;;;;;;;;;5007779;28;20413;-74
2022/10/27 15:13:34;;;;;;;;;;;;;;;;;;5008041;28;20050;-74
2022/10/27 15:16:10;;;;;;;0.50;0.50;;;;;;;;;;5007599;28;20285;-75
2022/10/27 15:18:42;;;;;;;2.30;0.70;;;;;;;;;;5007472;28;20053;-73
2022/10/27 15:21:19;;;;;;;0.85;0.50;;;;;;;;;;5007060;28;20065;-73
2022/10/27 15:23:54;;;;;;;0.43;0.43;;;;;;;;;;5007773;28;20050;-74
2022/10/27 15:26:27;;;;;;;2.55;0.60;;;;;;;;;;5007754;28;20046;-74
2022/10/27 15:28:58;;;;;;;1.02;0.65;;;;;;;;;;5007381;28;20050;-74
2022/10/27 15:31:39;;;;;;;2.83;0.85;;;;;;;;;;4989480;28;20049;-74
2022/10/27 15:34:32;;;;;;;1.55;0.55;;;;;;;;;;5007629;28;20069;-74
2022/10/27 15:37:40;;;;;;;0.38;0.38;;;;;;;;;;5007370;28;20057;-74